Time;durP1;ratioP1;P1;durP2;ratioP2;P2;SDS_P1;SDS_P2;PMS_P1;PMS_P2;Temp;Humidity;BMP_temperature;BMP_pressure;BME280_temperature;BME280_humidity;BME280_pressure;Samples;Min_cycle;Max_cycle;Signal;HPM_P1;HPM_P2
2024/04/04 00:01:20;;;;;;;0.47;0.30;;;;;;;21.35;33.82;99768.44;4474784;28;20405;-54
2024/04/04 00:03:30;;;;;;;0.43;0.30;;;;;;;21.35;33.95;99772.16;4474398;28;20047;-51
2024/04/04 00:05:40;;;;;;;0.32;0.30;;;;;;;21.35;34.21;99763.53;4474501;28;20042;-51
2024/04/04 00:07:51;;;;;;;0.32;0.30;;;;;;;21.34;34.09;99761.91;4441031;28;20163;-52
2024/04/04 00:10:01;;;;;;;0.63;0.30;;;;;;;21.34;33.68;99767.66;4474753;28;20897;-55
2024/04/04 00:12:12;;;;;;;1.05;0.40;;;;;;;21.34;34.04;99764.78;4474886;28;20027;-51
2024/04/04 00:14:22;;;;;;;0.85;0.28;;;;;;;21.34;34.07;99766.81;4474721;28;20472;-52
2024/04/04 00:16:34;;;;;;;0.52;0.30;;;;;;;21.34;33.98;99764.78;4474344;28;20041;-54
2024/04/04 00:18:46;;;;;;;0.40;0.40;;;;;;;21.33;33.41;99771.72;4474715;28;20038;-51
2024/04/04 00:20:57;;;;;;;0.38;0.13;;;;;;;21.34;33.91;99766.81;4474306;28;20043;-51
2024/04/04 00:23:07;;;;;;;0.30;0.20;;;;;;;21.33;33.53;99759.41;4474649;28;20030;-54
2024/04/04 00:25:17;;;;;;;0.60;0.40;;;;;;;21.33;33.84;99763.09;4474085;28;20663;-52
2024/04/04 00:27:28;;;;;;;0.38;0.30;;;;;;;21.32;33.53;99755.72;4456554;28;22073;-53
2024/04/04 00:29:38;;;;;;;0.60;0.22;;;;;;;21.32;33.29;99761.47;4474520;28;20046;-52
2024/04/04 00:31:49;;;;;;;0.73;0.30;;;;;;;21.31;33.77;99756.91;4472770;28;20035;-54
2024/04/04 00:33:59;;;;;;;0.30;0.20;;;;;;;21.30;33.46;99761.03;4457025;28;20067;-51
2024/04/04 00:36:10;;;;;;;0.45;0.25;;;;;;;21.31;33.40;99768.41;4474268;28;20492;-56
2024/04/04 00:38:20;;;;;;;0.60;0.30;;;;;;;21.31;33.61;99768.41;4474683;28;20518;-55
2024/04/04 00:40:37;;;;;;;1.35;0.40;;;;;;;21.30;33.55;99761.03;4474320;28;20027;-53
2024/04/04 00:42:51;;;;;;;0.20;0.20;;;;;;;21.30;33.61;99763.06;4474260;28;21273;-51
2024/04/04 00:45:01;;;;;;;0.80;0.40;;;;;;;21.29;33.78;99768.00;4474346;28;20118;-54
2024/04/04 00:47:12;;;;;;;0.45;0.20;;;;;;;21.29;33.78;99765.13;4474208;28;20035;-52
2024/04/04 00:49:22;;;;;;;0.32;0.20;;;;;;;21.29;33.69;99759.38;4474431;28;20415;-51
2024/04/04 00:51:33;;;;;;;0.32;0.25;;;;;;;21.28;33.55;99763.44;4474427;28;20031;-52
2024/04/04 00:53:43;;;;;;;0.68;0.50;;;;;;;21.29;33.61;99770.03;4456334;28;20039;-54
2024/04/04 00:55:54;;;;;;;1.15;0.40;;;;;;;21.29;33.87;99764.28;4474228;28;20046;-52
2024/04/04 00:58:05;;;;;;;1.33;0.30;;;;;;;21.28;33.32;99766.31;4474304;28;20067;-52
2024/04/04 01:00:16;;;;;;;0.57;0.20;;;;;;;21.27;33.87;99767.56;4474422;28;20038;-52
2024/04/04 01:02:26;;;;;;;0.90;0.30;;;;;;;21.28;33.36;99774.94;4474175;28;20039;-55
2024/04/04 01:04:36;;;;;;;0.57;0.30;;;;;;;21.28;33.55;99769.19;4474230;28;20034;-53
2024/04/04 01:06:47;;;;;;;0.55;0.20;;;;;;;21.28;33.83;99766.31;4471801;28;20062;-52
2024/04/04 01:08:58;;;;;;;0.93;0.30;;;;;;;21.26;33.62;99771.66;4474041;28;20054;-52
2024/04/04 01:11:08;;;;;;;1.48;0.40;;;;;;;21.27;33.58;99769.59;4473974;28;20035;-52
2024/04/04 01:13:19;;;;;;;0.52;0.32;;;;;;;21.26;33.65;99759.34;4474096;28;20277;-52
2024/04/04 01:15:29;;;;;;;0.50;0.30;;;;;;;21.26;33.50;99765.06;4473639;28;20038;-49
2024/04/04 01:17:39;;;;;;;1.02;0.30;;;;;;;21.25;33.46;99769.97;4474040;28;20034;-49
2024/04/04 01:19:52;;;;;;;0.40;0.30;;;;;;;21.25;33.87;99764.25;4474120;28;20527;-51
2024/04/04 01:22:02;;;;;;;0.95;0.38;;;;;;;21.25;33.40;99767.09;4473593;28;20805;-51
2024/04/04 01:24:13;;;;;;;0.45;0.20;;;;;;;21.24;33.54;99759.72;4473829;28;20070;-49
2024/04/04 01:26:23;;;;;;;0.47;0.28;;;;;;;21.24;33.63;99768.34;4445093;28;20053;-50
2024/04/04 01:28:36;;;;;;;0.43;0.30;;;;;;;21.23;33.49;99766.66;4473708;28;20035;-49
2024/04/04 01:30:47;;;;;;;1.35;0.30;;;;;;;21.24;33.26;99774.06;4472072;28;20039;-53
2024/04/04 01:32:57;;;;;;;0.65;0.30;;;;;;;21.24;33.08;99764.63;4473652;28;25998;-53
2024/04/04 01:35:08;;;;;;;0.95;0.40;;;;;;;21.22;33.49;99762.16;4473729;28;20046;-53
2024/04/04 01:37:18;;;;;;;1.27;0.30;;;;;;;21.22;33.05;99762.16;4473773;28;20526;-52
2024/04/04 01:39:29;;;;;;;0.55;0.22;;;;;;;21.23;33.29;99763.78;4473176;28;20035;-52
2024/04/04 01:41:42;;;;;;;1.75;0.30;;;;;;;21.23;33.43;99760.94;4473699;28;20031;-55
2024/04/04 01:43:52;;;;;;;0.75;0.20;;;;;;;21.22;33.40;99753.53;4473604;28;20934;-55
2024/04/04 01:46:03;;;;;;;0.57;0.32;;;;;;;21.22;33.39;99753.53;4473477;28;20043;-51
2024/04/04 01:48:13;;;;;;;1.23;0.32;;;;;;;21.23;32.96;99760.13;4473664;28;20058;-51
2024/04/04 01:50:24;;;;;;;0.82;0.30;;;;;;;21.22;33.13;99753.53;4473303;28;20090;-52
2024/04/04 01:52:34;;;;;;;1.30;0.20;;;;;;;21.21;32.96;99743.28;4473023;28;20038;-51
2024/04/04 01:54:45;;;;;;;0.38;0.28;;;;;;;21.22;33.16;99746.97;4473234;28;20047;-52
2024/04/04 01:56:55;;;;;;;1.45;0.40;;;;;;;21.20;33.42;99741.63;4473524;28;20114;-55
2024/04/04 01:59:05;;;;;;;0.70;0.25;;;;;;;21.20;32.73;99750.22;4473242;28;20042;-52
2024/04/04 02:01:16;;;;;;;0.60;0.30;;;;;;;21.20;32.94;99738.75;4473576;28;20085;-52
2024/04/04 02:03:26;;;;;;;0.73;0.32;;;;;;;21.21;33.01;99739.59;4473390;28;20026;-52
2024/04/04 02:05:37;;;;;;;0.30;0.30;;;;;;;21.19;33.48;99742.84;4472434;28;20043;-53
2024/04/04 02:07:47;;;;;;;1.58;0.40;;;;;;;21.19;33.00;99737.13;4473159;28;20584;-51
2024/04/04 02:09:57;;;;;;;0.20;0.20;;;;;;;21.20;33.03;99733.00;4473603;28;20373;-52
2024/04/04 02:12:09;;;;;;;0.70;0.25;;;;;;;21.18;33.10;99729.72;4455314;28;20036;-54
2024/04/04 02:14:20;;;;;;;0.65;0.28;;;;;;;21.18;33.13;99726.88;4472903;28;20609;-51
2024/04/04 02:16:31;;;;;;;0.40;0.30;;;;;;;21.17;33.34;99725.19;4473093;28;20066;-51
2024/04/04 02:18:41;;;;;;;1.20;0.32;;;;;;;21.18;33.47;99723.16;4473229;28;20062;-53
2024/04/04 02:20:51;;;;;;;0.45;0.30;;;;;;;21.18;33.20;99721.13;4472820;28;20098;-52
2024/04/04 02:23:02;;;;;;;0.50;0.30;;;;;;;21.17;33.08;99722.31;4455564;28;20063;-51
2024/04/04 02:25:13;;;;;;;0.57;0.30;;;;;;;21.18;33.25;99717.41;4472760;28;20054;-53
2024/04/04 02:27:23;;;;;;;0.57;0.35;;;;;;;21.17;33.44;99710.03;4473399;28;20050;-52
2024/04/04 02:29:34;;;;;;;1.08;0.32;;;;;;;21.17;33.08;99705.09;4455564;28;20050;-53
2024/04/04 02:31:45;;;;;;;1.08;0.40;;;;;;;21.16;33.16;99709.19;4472983;28;20122;-55
2024/04/04 02:33:55;;;;;;;0.88;0.30;;;;;;;21.17;33.73;99699.38;4473117;28;20134;-55
2024/04/04 02:36:06;;;;;;;0.38;0.30;;;;;;;21.17;33.26;99695.69;4472406;28;20042;-52
2024/04/04 02:38:16;;;;;;;1.13;0.30;;;;;;;21.16;33.29;99697.72;4472713;28;20141;-53
2024/04/04 02:40:27;;;;;;;0.70;0.40;;;;;;;21.16;33.67;99696.88;4472981;28;20050;-56
2024/04/04 02:42:38;;;;;;;1.00;0.30;;;;;;;21.16;33.53;99691.97;4472897;28;20192;-51
2024/04/04 02:44:48;;;;;;;0.85;0.20;;;;;;;21.16;33.70;99696.88;4472404;28;20918;-51
2024/04/04 02:46:59;;;;;;;1.10;0.40;;;;;;;21.15;33.87;99696.09;4472650;28;20054;-55
2024/04/04 02:49:09;;;;;;;0.65;0.40;;;;;;;21.14;33.83;99691.53;4472807;28;20175;-52
2024/04/04 02:51:20;;;;;;;0.52;0.30;;;;;;;21.15;34.17;99690.34;4471778;28;20307;-52
2024/04/04 02:53:30;;;;;;;0.68;0.30;;;;;;;21.15;34.08;99693.22;4473025;28;20031;-51
2024/04/04 02:55:40;;;;;;;0.47;0.30;;;;;;;21.14;33.92;99700.16;4472518;28;20034;-56
2024/04/04 02:57:51;;;;;;;1.48;0.68;;;;;;;21.14;34.32;99691.53;4472855;28;20043;-55
2024/04/04 03:00:01;;;;;;;0.40;0.30;;;;;;;21.13;34.17;99689.91;4472322;28;20039;-53
2024/04/04 03:02:12;;;;;;;0.75;0.28;;;;;;;21.14;34.35;99690.72;4472833;28;20046;-55
2024/04/04 03:04:24;;;;;;;0.85;0.40;;;;;;;21.14;34.07;99687.84;4472807;28;20039;-55
2024/04/04 03:06:35;;;;;;;0.80;0.30;;;;;;;21.13;34.67;99689.91;4471901;28;21572;-55
2024/04/04 03:08:45;;;;;;;0.98;0.45;;;;;;;21.12;34.51;99678.81;4472417;28;20081;-53
2024/04/04 03:10:56;;;;;;;1.02;0.30;;;;;;;21.12;34.42;99670.22;4472733;28;20041;-55
2024/04/04 03:13:06;;;;;;;1.52;0.50;;;;;;;21.12;34.70;99664.47;4472558;28;20169;-55
2024/04/04 03:15:17;;;;;;;0.65;0.30;;;;;;;21.12;34.42;99662.41;4472373;28;20029;-56
2024/04/04 03:17:28;;;;;;;1.33;0.30;;;;;;;21.11;34.56;99660.78;4472925;28;20537;-54
2024/04/04 03:19:38;;;;;;;0.55;0.30;;;;;;;21.11;34.56;99657.91;4472104;28;20074;-55
2024/04/04 03:21:48;;;;;;;1.33;0.30;;;;;;;21.11;34.24;99666.50;4454597;28;20065;-55
2024/04/04 03:23:59;;;;;;;1.05;0.30;;;;;;;21.10;34.58;99653.38;4454872;28;20035;-55
2024/04/04 03:26:09;;;;;;;0.60;0.40;;;;;;;21.11;34.64;99659.94;4471945;28;20094;-53
2024/04/04 03:28:20;;;;;;;1.98;0.30;;;;;;;21.10;34.47;99659.13;4472606;28;20530;-54
2024/04/04 03:30:30;;;;;;;0.43;0.40;;;;;;;21.10;34.84;99653.38;4454951;28;20574;-56
2024/04/04 03:32:40;;;;;;;0.55;0.30;;;;;;;21.09;34.77;99636.56;4472180;28;20043;-54
2024/04/04 03:34:51;;;;;;;1.35;0.32;;;;;;;21.09;34.83;99630.84;4472239;28;20102;-54
2024/04/04 03:37:01;;;;;;;0.82;0.28;;;;;;;21.09;35.11;99640.25;4472285;28;20521;-54
2024/04/04 03:39:12;;;;;;;2.15;0.30;;;;;;;21.09;34.75;99634.50;4471980;28;20038;-52
2024/04/04 03:41:22;;;;;;;1.05;0.30;;;;;;;21.08;34.71;99632.88;4454428;28;20178;-53
2024/04/04 03:43:33;;;;;;;0.85;0.40;;;;;;;21.08;35.04;99638.59;4472028;28;20035;-52
2024/04/04 03:45:44;;;;;;;0.65;0.40;;;;;;;21.08;35.27;99630.00;4472213;28;20038;-51
2024/04/04 03:47:55;;;;;;;0.45;0.30;;;;;;;21.08;35.32;99634.91;4454375;28;20961;-53
2024/04/04 03:50:06;;;;;;;0.50;0.30;;;;;;;21.08;35.12;99632.03;4472199;28;20022;-55
2024/04/04 03:52:16;;;;;;;0.85;0.40;;;;;;;21.06;35.09;99632.44;4454789;28;20043;-55
2024/04/04 03:54:27;;;;;;;1.15;0.40;;;;;;;21.07;35.41;99628.34;4442613;28;20035;-55
2024/04/04 03:56:37;;;;;;;0.35;0.30;;;;;;;21.07;35.01;99631.22;4471932;28;20043;-52
2024/04/04 03:58:47;;;;;;;0.55;0.30;;;;;;;21.07;35.36;99627.53;4472003;28;20019;-53
2024/04/04 04:00:58;;;;;;;0.50;0.30;;;;;;;21.07;34.84;99630.41;4471880;28;20043;-52
2024/04/04 04:03:09;;;;;;;0.90;0.50;;;;;;;21.05;35.06;99622.19;4473876;28;20376;-54
2024/04/04 04:05:19;;;;;;;1.08;0.38;;;;;;;21.06;34.94;99628.75;4474376;28;20399;-55
2024/04/04 04:07:29;;;;;;;0.77;0.40;;;;;;;21.06;35.07;99617.28;4475211;28;20035;-52
2024/04/04 04:09:40;;;;;;;0.65;0.40;;;;;;;21.06;35.04;99617.28;4474866;28;21395;-52
2024/04/04 04:11:50;;;;;;;0.80;0.30;;;;;;;21.05;35.12;99613.56;4457274;28;20106;-56
2024/04/04 04:14:01;;;;;;;0.43;0.30;;;;;;;21.04;35.45;99606.16;4474589;28;20786;-53
2024/04/04 04:16:13;;;;;;;0.35;0.32;;;;;;;21.05;35.64;99613.56;4474682;28;20483;-53
2024/04/04 04:18:23;;;;;;;0.85;0.30;;;;;;;21.04;35.19;99603.28;4473219;28;20035;-55
2024/04/04 04:23:05;;;;;;;0.63;0.30;;;;;;;21.04;35.30;99606.16;4475045;28;20566;-54
2024/04/04 04:25:15;;;;;;;0.73;0.45;;;;;;;21.03;35.39;99604.53;4474434;28;20039;-51
2024/04/04 04:27:26;;;;;;;0.50;0.28;;;;;;;21.04;35.51;99597.56;4456982;28;20038;-56
2024/04/04 04:29:36;;;;;;;0.45;0.30;;;;;;;21.03;35.36;99590.19;4475178;28;20047;-56
2024/04/04 04:31:47;;;;;;;0.52;0.32;;;;;;;21.03;36.08;99598.78;4474709;28;20035;-55
2024/04/04 04:33:59;;;;;;;0.32;0.30;;;;;;;21.02;35.96;99594.28;4474915;28;20588;-53
2024/04/04 04:36:10;;;;;;;0.30;0.30;;;;;;;21.02;36.12;99590.56;4456546;28;20050;-53
2024/04/04 04:38:20;;;;;;;1.05;0.30;;;;;;;21.02;36.29;99590.56;4474804;28;20045;-51
2024/04/04 04:40:30;;;;;;;0.30;0.30;;;;;;;21.01;35.90;99588.94;4474279;28;20035;-55
2024/04/04 04:42:41;;;;;;;0.30;0.20;;;;;;;21.01;36.13;99588.94;4474802;28;20039;-52
2024/04/04 04:44:51;;;;;;;0.20;0.20;;;;;;;21.01;36.26;99586.88;4456631;28;20062;-54
2024/04/04 04:47:02;;;;;;;0.45;0.38;;;;;;;21.01;36.45;99586.88;4474103;28;20085;-51
2024/04/04 04:49:12;;;;;;;0.65;0.20;;;;;;;21.01;36.32;99586.06;4474108;28;20039;-52
2024/04/04 04:51:22;;;;;;;0.47;0.28;;;;;;;21.00;36.67;99585.25;4474688;28;20046;-51
2024/04/04 04:53:34;;;;;;;0.52;0.30;;;;;;;21.00;36.84;99582.38;4474005;28;20035;-52
2024/04/04 04:55:50;;;;;;;0.63;0.40;;;;;;;21.00;36.69;99573.75;4473972;28;20069;-54
2024/04/04 04:58:01;;;;;;;;;;;;;;;21.00;36.95;99568.03;4474668;28;20035;-53
2024/04/04 05:00:12;;;;;;;0.43;0.30;;;;;;;21.00;36.86;99573.75;4474194;28;19917;-52
2024/04/04 05:02:23;;;;;;;1.42;0.40;;;;;;;20.98;37.39;99570.44;4456367;28;20122;-52
2024/04/04 05:04:33;;;;;;;1.17;0.70;;;;;;;20.99;37.62;99566.38;4474001;28;20035;-54
2024/04/04 05:06:46;;;;;;;0.70;0.70;;;;;;;20.99;37.64;99577.88;4473900;28;20046;-52
2024/04/04 05:08:57;;;;;;;2.35;1.27;;;;;;;20.99;37.90;99571.28;4473900;28;20023;-52
2024/04/04 05:11:07;;;;;;;0.57;0.57;;;;;;;20.99;38.05;99565.56;4474240;28;20042;-54
2024/04/04 05:13:18;;;;;;;0.85;0.50;;;;;;;20.97;38.23;99563.06;4473282;28;20089;-56
2024/04/04 05:15:28;;;;;;;0.70;0.50;;;;;;;20.98;38.11;99561.03;4472806;28;20047;-52
2024/04/04 05:17:39;;;;;;;1.13;0.40;;;;;;;20.97;38.90;99554.47;4446530;28;20102;-51
2024/04/04 05:19:49;;;;;;;1.27;0.50;;;;;;;20.96;38.61;99551.97;4473915;28;20096;-54
2024/04/04 05:22:00;;;;;;;0.98;0.70;;;;;;;20.97;38.95;99557.34;4474050;28;20476;-51
2024/04/04 05:24:10;;;;;;;1.13;1.02;;;;;;;20.96;39.08;99546.22;4473650;28;20051;-55
2024/04/04 05:26:21;;;;;;;0.77;0.70;;;;;;;20.96;39.40;99544.22;4473750;28;20039;-53
2024/04/04 05:28:31;;;;;;;0.43;0.43;;;;;;;20.97;39.19;99539.28;4473593;28;20090;-53
2024/04/04 05:30:41;;;;;;;0.55;0.30;;;;;;;20.96;39.65;99543.38;4473423;28;20118;-52
2024/04/04 05:32:53;;;;;;;0.85;0.35;;;;;;;20.96;39.57;99535.63;4473735;28;20073;-53
2024/04/04 05:35:04;;;;;;;0.50;0.30;;;;;;;20.95;40.21;99531.06;4456125;28;20892;-51
2024/04/04 05:37:15;;;;;;;0.55;0.40;;;;;;;20.95;39.98;99531.06;4456496;28;20126;-51
2024/04/04 05:39:25;;;;;;;0.55;0.40;;;;;;;20.94;39.82;99526.56;4473795;28;20132;-52
2024/04/04 05:41:35;;;;;;;0.70;0.20;;;;;;;20.94;39.91;99528.59;4473605;28;20062;-52
2024/04/04 05:43:46;;;;;;;0.55;0.40;;;;;;;20.93;40.09;99522.00;4473545;28;20970;-51
2024/04/04 05:45:56;;;;;;;0.60;0.30;;;;;;;20.94;40.33;99522.84;4473396;28;20045;-51
2024/04/04 05:48:07;;;;;;;0.40;0.40;;;;;;;20.94;40.51;99525.72;4473819;28;20041;-51
2024/04/04 05:50:17;;;;;;;0.65;0.60;;;;;;;20.93;40.49;99521.22;4452787;28;20038;-51
2024/04/04 05:52:28;;;;;;;0.68;0.50;;;;;;;20.94;40.47;99525.72;4455630;28;20488;-52
2024/04/04 05:54:39;;;;;;;1.10;0.40;;;;;;;20.92;40.80;99514.63;4472796;28;20172;-52
2024/04/04 05:56:49;;;;;;;0.40;0.40;;;;;;;20.92;40.56;99508.91;4456035;28;20031;-52
2024/04/04 05:59:00;;;;;;;0.47;0.28;;;;;;;20.92;40.97;99505.19;4473539;28;20055;-52
2024/04/04 06:01:11;;;;;;;0.63;0.30;;;;;;;20.92;40.46;99506.03;4473338;28;20047;-51
2024/04/04 06:03:21;;;;;;;0.93;0.65;;;;;;;20.92;40.69;99497.44;4472863;28;20034;-52
2024/04/04 06:05:32;;;;;;;0.60;0.50;;;;;;;20.91;40.88;99495.78;4473347;28;20505;-52
2024/04/04 06:07:42;;;;;;;0.60;0.40;;;;;;;20.92;40.83;99493.72;4473294;28;20113;-52
2024/04/04 06:09:52;;;;;;;0.90;0.60;;;;;;;20.91;40.82;99489.22;4473548;28;20484;-55
2024/04/04 06:12:03;;;;;;;0.50;0.30;;;;;;;20.90;41.26;99482.66;4473420;28;20048;-51
2024/04/04 06:14:13;;;;;;;0.45;0.40;;;;;;;20.90;41.19;99482.66;4472892;28;21194;-52
2024/04/04 06:16:24;;;;;;;0.50;0.50;;;;;;;20.90;41.19;99479.78;4473167;28;20043;-56
2024/04/04 06:18:34;;;;;;;0.50;0.40;;;;;;;20.90;41.19;99471.19;4439572;28;20035;-55
2024/04/04 06:20:45;;;;;;;0.30;0.30;;;;;;;20.90;41.78;99474.03;4455452;28;20066;-55
2024/04/04 06:22:55;;;;;;;0.30;0.30;;;;;;;20.90;41.76;99464.63;4473191;28;20030;-53
2024/04/04 06:25:06;;;;;;;0.98;0.30;;;;;;;20.90;41.81;99465.44;4472735;28;20027;-55
2024/04/04 06:27:16;;;;;;;0.25;0.25;;;;;;;20.90;41.93;99456.84;4473208;28;20041;-53
2024/04/04 06:29:27;;;;;;;0.20;0.20;;;;;;;20.89;42.01;99452.34;4455121;28;20075;-55
2024/04/04 06:31:37;;;;;;;0.30;0.30;;;;;;;20.89;41.73;99452.34;4473082;28;20165;-51
2024/04/04 06:33:47;;;;;;;0.52;0.32;;;;;;;20.89;42.27;99445.75;4473083;28;20043;-51
2024/04/04 06:35:58;;;;;;;0.52;0.30;;;;;;;20.88;42.36;99439.22;4472782;28;20031;-54
2024/04/04 06:38:08;;;;;;;0.70;0.40;;;;;;;20.89;42.64;99440.03;4473087;28;20046;-56
2024/04/04 06:40:19;;;;;;;0.30;0.30;;;;;;;20.89;42.22;99440.03;4473215;28;20038;-52
2024/04/04 06:42:29;;;;;;;0.30;0.30;;;;;;;20.88;42.64;99433.50;4438970;28;20530;-52
2024/04/04 06:44:40;;;;;;;0.30;0.30;;;;;;;20.88;42.73;99426.91;4438613;28;20950;-56
2024/04/04 06:46:51;;;;;;;0.30;0.30;;;;;;;20.87;42.70;99431.81;4472943;28;20039;-52
2024/04/04 06:49:02;;;;;;;1.25;0.40;;;;;;;20.88;42.58;99435.53;4472712;28;20066;-53
2024/04/04 06:51:13;;;;;;;0.30;0.30;;;;;;;20.86;42.40;99423.63;4472776;28;20748;-54
2024/04/04 06:53:23;;;;;;;0.38;0.30;;;;;;;20.86;42.92;99435.91;4471123;28;20053;-52
2024/04/04 06:55:33;;;;;;;1.00;0.30;;;;;;;20.85;42.82;99427.72;4472425;28;20066;-52
2024/04/04 06:57:44;;;;;;;0.50;0.30;;;;;;;20.85;42.77;99424.84;4472303;28;20018;-54
2024/04/04 06:59:54;;;;;;;0.25;0.25;;;;;;;20.85;42.81;99431.41;4472717;28;20496;-55
2024/04/04 07:02:05;;;;;;;0.50;0.30;;;;;;;20.85;43.15;99421.97;4472731;28;20154;-53
2024/04/04 07:04:16;;;;;;;0.30;0.28;;;;;;;20.84;43.30;99421.16;4472677;28;20164;-52
2024/04/04 07:06:26;;;;;;;0.30;0.30;;;;;;;20.85;43.32;99424.84;4472305;28;20035;-55
2024/04/04 07:08:38;;;;;;;0.20;0.20;;;;;;;20.84;43.69;99421.16;4472679;28;20043;-51
2024/04/04 07:10:49;;;;;;;0.57;0.38;;;;;;;20.83;43.50;99425.25;4471200;28;20070;-52
2024/04/04 07:12:59;;;;;;;0.40;0.30;;;;;;;20.83;43.86;99419.50;4472657;28;20026;-55
2024/04/04 07:15:09;;;;;;;0.57;0.30;;;;;;;20.82;43.88;99414.97;4454762;28;20434;-54
2024/04/04 07:17:20;;;;;;;0.38;0.30;;;;;;;20.85;43.90;99404.78;4454910;28;20039;-51
2024/04/04 07:19:30;;;;;;;0.30;0.30;;;;;;;20.83;44.11;99412.94;4444314;28;20083;-54
2024/04/04 07:21:41;;;;;;;0.38;0.30;;;;;;;20.83;44.22;99407.19;4472448;28;20043;-52
2024/04/04 07:23:51;;;;;;;0.43;0.28;;;;;;;20.83;44.70;99415.81;4454714;28;20369;-52
2024/04/04 07:26:02;;;;;;;0.55;0.30;;;;;;;20.83;44.80;99407.19;4472123;28;20034;-56
2024/04/04 07:28:12;;;;;;;1.45;0.30;;;;;;;20.82;44.71;99399.84;4443149;28;20042;-52
2024/04/04 07:30:23;;;;;;;0.45;0.30;;;;;;;20.82;44.73;99405.56;4472455;28;20051;-52
2024/04/04 07:32:33;;;;;;;0.60;0.50;;;;;;;20.83;45.12;99401.47;4472334;28;20037;-55
2024/04/04 07:34:44;;;;;;;0.50;0.30;;;;;;;20.82;44.94;99406.38;4471761;28;20023;-56
2024/04/04 07:36:56;;;;;;;0.38;0.38;;;;;;;20.81;45.41;99404.72;4472735;28;20042;-52
2024/04/04 07:39:09;;;;;;;0.30;0.28;;;;;;;20.82;44.83;99406.38;4475300;28;20581;-51
2024/04/04 07:41:19;;;;;;;0.38;0.30;;;;;;;20.82;45.40;99396.97;4474898;28;20509;-54
2024/04/04 07:43:30;;;;;;;0.20;0.20;;;;;;;20.82;45.61;99399.84;4475246;28;20079;-55
2024/04/04 07:45:42;;;;;;;0.30;0.30;;;;;;;20.82;45.30;99400.63;4457314;28;20411;-55
2024/04/04 07:47:52;;;;;;;0.43;0.30;;;;;;;20.82;45.42;99396.97;4457440;28;20593;-52
2024/04/04 07:50:07;;;;;;;0.30;0.30;;;;;;;20.82;45.52;99394.91;4475010;28;20061;-55
2024/04/04 07:52:18;;;;;;;0.25;0.20;;;;;;;20.81;45.51;99399.00;4475206;28;20553;-53
2024/04/04 07:54:29;;;;;;;0.32;0.30;;;;;;;20.81;45.34;99396.13;4474894;28;20039;-53
2024/04/04 07:56:39;;;;;;;0.38;0.30;;;;;;;20.82;45.72;99392.03;4474967;28;20039;-52
2024/04/04 07:58:50;;;;;;;0.25;0.20;;;;;;;20.79;45.77;99389.97;4457524;28;20021;-56
2024/04/04 08:01:02;;;;;;;0.20;0.20;;;;;;;20.81;45.54;99393.25;4457692;28;20188;-54
2024/04/04 08:03:14;;;;;;;0.17;0.17;;;;;;;20.81;45.82;99387.53;4474685;28;20027;-55
2024/04/04 08:05:27;;;;;;;0.10;0.10;;;;;;;20.80;46.09;99392.44;4472112;28;20123;-49
2024/04/04 08:07:37;;;;;;;0.30;0.30;;;;;;;20.81;45.93;99384.66;4457011;28;20035;-53
2024/04/04 08:09:48;;;;;;;0.43;0.20;;;;;;;20.81;46.19;99381.78;4474565;28;20043;-52
2024/04/04 08:11:58;;;;;;;0.30;0.30;;;;;;;20.81;46.34;99387.53;4475237;28;20515;-52
2024/04/04 08:14:09;;;;;;;0.35;0.20;;;;;;;20.82;46.14;99379.75;4474796;28;20544;-53
2024/04/04 08:16:19;;;;;;;0.20;0.20;;;;;;;20.81;46.09;99387.53;4473595;28;20098;-51
2024/04/04 08:18:29;;;;;;;0.32;0.30;;;;;;;20.80;46.34;99378.09;4456575;28;20043;-52
2024/04/04 08:20:44;;;;;;;0.10;0.10;;;;;;;20.80;46.52;99380.97;4473425;28;20031;-55
2024/04/04 08:22:55;;;;;;;0.30;0.30;;;;;;;20.81;46.17;99381.78;4474017;28;20081;-54
2024/04/04 08:25:06;;;;;;;0.20;0.20;;;;;;;20.80;46.49;99375.22;4473630;28;20089;-52
2024/04/04 08:27:20;;;;;;;0.20;0.20;;;;;;;20.80;46.59;99362.94;4456660;28;20079;-51
2024/04/04 08:29:30;;;;;;;0.75;0.20;;;;;;;20.80;46.38;99362.94;4474029;28;20037;-53
2024/04/04 08:31:41;;;;;;;0.80;0.20;;;;;;;20.79;46.56;99364.16;4460452;28;20062;-55
2024/04/04 08:33:51;;;;;;;1.02;0.68;;;;;;;20.79;46.69;99364.16;4458538;28;20061;-51
2024/04/04 08:36:02;;;;;;;0.32;0.30;;;;;;;20.80;46.51;99362.94;4442625;28;20502;-53
2024/04/04 08:38:12;;;;;;;0.52;0.38;;;;;;;20.81;46.89;99370.31;4456412;28;20061;-51
2024/04/04 08:40:24;;;;;;;0.93;0.40;;;;;;;20.80;46.71;99360.09;4451151;28;20521;-55
2024/04/04 08:42:34;;;;;;;0.63;0.50;;;;;;;20.81;46.82;99353.13;4474081;28;20047;-56
2024/04/04 08:44:48;;;;;;;0.40;0.38;;;;;;;20.81;46.87;99350.25;4455288;28;20043;-54
2024/04/04 08:46:59;;;;;;;0.40;0.40;;;;;;;20.81;46.92;99341.66;4473133;28;20038;-52
2024/04/04 08:49:14;;;;;;;0.30;0.30;;;;;;;20.81;47.51;99338.78;4472986;28;20058;-51
2024/04/04 08:51:25;;;;;;;0.40;0.20;;;;;;;20.82;48.07;99337.53;4473556;28;20969;-52
2024/04/04 08:53:36;;;;;;;0.50;0.20;;;;;;;20.81;47.92;99330.16;4473879;28;20117;-55
2024/04/04 08:55:47;;;;;;;0.47;0.20;;;;;;;20.81;48.08;99330.16;4473538;28;20023;-55
2024/04/04 08:57:58;;;;;;;0.55;0.20;;;;;;;20.83;48.68;99321.16;4473666;28;20035;-51
2024/04/04 09:00:11;;;;;;;0.22;0.20;;;;;;;20.82;48.64;99328.94;4473899;28;20046;-54
2024/04/04 09:02:21;;;;;;;0.75;0.43;;;;;;;20.81;48.54;99318.69;4471759;28;20038;-54
2024/04/04 09:04:32;;;;;;;0.35;0.20;;;;;;;20.81;48.65;99321.56;4473709;28;20399;-50
2024/04/04 09:06:43;;;;;;;0.30;0.20;;;;;;;20.80;48.41;99319.94;4473400;28;20229;-50
2024/04/04 09:08:58;;;;;;;0.77;0.20;;;;;;;20.80;48.79;99323.59;4455234;28;20042;-56
2024/04/04 09:11:10;;;;;;;0.30;0.20;;;;;;;20.81;48.60;99324.44;4442527;28;20043;-51
2024/04/04 09:13:25;;;;;;;0.50;0.20;;;;;;;20.81;48.66;99330.16;4473648;28;20050;-53
2024/04/04 09:15:37;;;;;;;0.10;0.10;;;;;;;20.79;48.54;99326.88;4472982;28;20035;-53
2024/04/04 09:17:47;;;;;;;0.10;0.10;;;;;;;20.82;48.23;99333.88;4455661;28;20035;-51
2024/04/04 09:19:59;;;;;;;0.28;0.28;;;;;;;20.81;48.00;99330.16;4472432;28;20045;-52
2024/04/04 09:22:09;;;;;;;0.20;0.20;;;;;;;20.80;48.24;99322.81;4473297;28;20048;-52
2024/04/04 09:24:19;;;;;;;0.38;0.20;;;;;;;20.81;47.93;99338.78;4472799;28;20027;-53
2024/04/04 09:26:31;;;;;;;0.30;0.30;;;;;;;20.80;47.84;99337.94;4455972;28;20508;-53
2024/04/04 09:28:41;;;;;;;0.30;0.13;;;;;;;20.81;47.45;99344.50;4472926;28;20039;-50
2024/04/04 09:30:56;;;;;;;0.20;0.10;;;;;;;20.80;47.51;99342.88;4473263;28;20521;-54
2024/04/04 09:33:09;;;;;;;0.20;0.20;;;;;;;20.80;47.42;99332.22;4455263;28;20023;-55
2024/04/04 09:35:20;;;;;;;0.30;0.20;;;;;;;20.78;47.62;99343.28;4473018;28;20070;-55
2024/04/04 09:37:31;;;;;;;0.20;0.20;;;;;;;20.80;47.68;99357.22;4472776;28;20039;-54
2024/04/04 09:39:42;;;;;;;0.30;0.20;;;;;;;20.79;47.34;99367.03;4473091;28;20027;-55
2024/04/04 09:41:53;;;;;;;0.10;0.10;;;;;;;20.79;47.57;99361.28;4445419;28;20051;-61
2024/04/04 09:44:05;;;;;;;0.10;0.10;;;;;;;20.81;47.73;99350.25;4473312;28;20077;-62
2024/04/04 09:46:19;;;;;;;0.32;0.20;;;;;;;20.81;47.67;99312.97;4472697;28;20162;-62
2024/04/04 09:48:29;;;;;;;0.40;0.10;;;;;;;20.81;47.68;99315.84;4473456;28;20027;-62
2024/04/04 09:50:40;;;;;;;0.15;0.10;;;;;;;20.82;47.60;99326.06;4439494;28;20035;-62
2024/04/04 09:52:51;;;;;;;0.25;0.20;;;;;;;20.85;47.49;99336.78;4453176;28;20043;-63
2024/04/04 09:55:02;;;;;;;0.40;0.20;;;;;;;20.86;48.08;99357.66;4473155;28;20105;-59
2024/04/04 09:57:13;;;;;;;0.60;0.30;;;;;;;20.87;47.93;99360.13;4473043;28;20572;-53
2024/04/04 09:59:28;;;;;;;0.45;0.25;;;;;;;20.87;48.13;99368.72;4473104;28;20097;-54
2024/04/04 10:01:39;;;;;;;0.50;0.50;;;;;;;20.90;48.21;99379.41;4438572;28;20040;-54
2024/04/04 10:03:53;;;;;;;0.40;0.30;;;;;;;20.90;48.14;99382.25;4427280;28;20043;-53
2024/04/04 10:06:24;;;;;;;0.40;0.40;;;;;;;20.91;48.14;99398.28;4441207;28;20626;-54
2024/04/04 10:08:35;;;;;;;1.00;0.30;;;;;;;20.90;48.22;99396.59;4397705;28;20098;-51
2024/04/04 10:10:45;;;;;;;0.50;0.40;;;;;;;20.92;48.32;99405.63;4419728;28;20127;-53
2024/04/04 10:12:57;;;;;;;0.50;0.45;;;;;;;20.91;48.46;99395.41;4450163;28;20055;-54
2024/04/04 10:15:09;;;;;;;0.30;0.30;;;;;;;20.93;48.27;99400.75;4429248;28;20994;-51
2024/04/04 10:17:20;;;;;;;0.38;0.20;;;;;;;20.92;47.68;99402.78;4472564;28;20027;-54
2024/04/04 10:19:32;;;;;;;0.10;0.10;;;;;;;20.93;47.79;99412.22;4438981;28;20151;-54